sensor_id;sensor_type;location;lat;lon;timestamp;P1;durP1;ratioP1;P2;durP2;ratioP2
3718;SDS011;1875;52.492;6.860;2022-07-29T00:01:05;2266.67;;;999.90;;
3718;SDS011;1875;52.492;6.860;2022-07-29T00:03:44;2266.67;;;999.90;;
3718;SDS011;1875;52.492;6.860;2022-07-29T00:06:12;2266.67;;;999.90;;
3718;SDS011;1875;52.492;6.860;2022-07-29T00:08:40;2266.67;;;999.90;;
3718;SDS011;1875;52.492;6.860;2022-07-29T00:11:08;2266.67;;;999.90;;
3718;SDS011;1875;52.492;6.860;2022-07-29T00:13:35;2266.67;;;999.90;;
3718;SDS011;1875;52.492;6.860;2022-07-29T00:16:04;2266.67;;;999.90;;
3718;SDS011;1875;52.492;6.860;2022-07-29T00:18:32;2266.67;;;999.90;;
3718;SDS011;1875;52.492;6.860;2022-07-29T00:21:00;2266.67;;;999.90;;
3718;SDS011;1875;52.492;6.860;2022-07-29T00:23:27;2266.67;;;999.90;;
3718;SDS011;1875;52.492;6.860;2022-07-29T00:26:00;2266.67;;;999.90;;
3718;SDS011;1875;52.492;6.860;2022-07-29T00:28:27;2266.67;;;999.90;;
3718;SDS011;1875;52.492;6.860;2022-07-29T00:30:55;2266.67;;;999.90;;
3718;SDS011;1875;52.492;6.860;2022-07-29T00:33:24;2266.67;;;999.90;;
3718;SDS011;1875;52.492;6.860;2022-07-29T00:35:52;2266.67;;;999.90;;
3718;SDS011;1875;52.492;6.860;2022-07-29T00:38:20;2266.67;;;999.90;;
3718;SDS011;1875;52.492;6.860;2022-07-29T00:40:48;2266.67;;;999.90;;
3718;SDS011;1875;52.492;6.860;2022-07-29T00:43:16;2266.67;;;999.90;;
3718;SDS011;1875;52.492;6.860;2022-07-29T00:45:44;2266.67;;;999.90;;
3718;SDS011;1875;52.492;6.860;2022-07-29T00:48:12;2266.67;;;999.90;;
3718;SDS011;1875;52.492;6.860;2022-07-29T00:50:41;2266.67;;;999.90;;
3718;SDS011;1875;52.492;6.860;2022-07-29T00:53:08;2266.67;;;999.90;;
3718;SDS011;1875;52.492;6.860;2022-07-29T00:55:38;2266.67;;;999.90;;
3718;SDS011;1875;52.492;6.860;2022-07-29T00:58:07;2266.67;;;999.90;;
3718;SDS011;1875;52.492;6.860;2022-07-29T01:00:34;2266.67;;;999.90;;
3718;SDS011;1875;52.492;6.860;2022-07-29T01:03:03;2266.67;;;999.90;;
3718;SDS011;1875;52.492;6.860;2022-07-29T01:05:30;2266.67;;;999.90;;
3718;SDS011;1875;52.492;6.860;2022-07-29T01:08:18;2266.67;;;999.90;;
3718;SDS011;1875;52.492;6.860;2022-07-29T01:10:46;2266.67;;;999.90;;
3718;SDS011;1875;52.492;6.860;2022-07-29T01:13:14;2266.67;;;999.90;;
3718;SDS011;1875;52.492;6.860;2022-07-29T01:15:43;2266.67;;;999.90;;
3718;SDS011;1875;52.492;6.860;2022-07-29T01:18:16;2266.67;;;999.90;;
3718;SDS011;1875;52.492;6.860;2022-07-29T01:21:02;2266.67;;;999.90;;
3718;SDS011;1875;52.492;6.860;2022-07-29T01:26:45;2266.67;;;999.90;;
3718;SDS011;1875;52.492;6.860;2022-07-29T01:29:17;2266.67;;;999.90;;
3718;SDS011;1875;52.492;6.860;2022-07-29T01:31:51;2266.67;;;999.90;;
3718;SDS011;1875;52.492;6.860;2022-07-29T01:34:30;2266.67;;;999.90;;
3718;SDS011;1875;52.492;6.860;2022-07-29T01:37:04;2266.67;;;999.90;;
3718;SDS011;1875;52.492;6.860;2022-07-29T01:39:34;2266.67;;;999.90;;
3718;SDS011;1875;52.492;6.860;2022-07-29T01:42:05;2266.67;;;999.90;;
3718;SDS011;1875;52.492;6.860;2022-07-29T01:44:39;2266.67;;;999.90;;
3718;SDS011;1875;52.492;6.860;2022-07-29T01:47:10;2266.67;;;999.90;;
3718;SDS011;1875;52.492;6.860;2022-07-29T01:49:43;2266.67;;;999.90;;
3718;SDS011;1875;52.492;6.860;2022-07-29T01:52:15;2266.67;;;999.90;;
3718;SDS011;1875;52.492;6.860;2022-07-29T01:54:48;2266.67;;;999.90;;
3718;SDS011;1875;52.492;6.860;2022-07-29T01:57:21;2266.67;;;999.90;;
3718;SDS011;1875;52.492;6.860;2022-07-29T01:59:55;2266.67;;;999.90;;
3718;SDS011;1875;52.492;6.860;2022-07-29T02:02:23;2266.67;;;999.90;;
3718;SDS011;1875;52.492;6.860;2022-07-29T02:04:52;2266.67;;;999.90;;
3718;SDS011;1875;52.492;6.860;2022-07-29T02:07:21;2266.67;;;999.90;;
3718;SDS011;1875;52.492;6.860;2022-07-29T02:09:49;2266.67;;;999.90;;
3718;SDS011;1875;52.492;6.860;2022-07-29T02:12:18;2266.67;;;999.90;;
3718;SDS011;1875;52.492;6.860;2022-07-29T02:14:47;2266.67;;;999.90;;
3718;SDS011;1875;52.492;6.860;2022-07-29T02:17:21;2266.67;;;999.90;;
3718;SDS011;1875;52.492;6.860;2022-07-29T02:19:51;2266.67;;;999.90;;
3718;SDS011;1875;52.492;6.860;2022-07-29T02:22:19;2266.67;;;999.90;;
3718;SDS011;1875;52.492;6.860;2022-07-29T02:24:48;2266.67;;;999.90;;
3718;SDS011;1875;52.492;6.860;2022-07-29T02:27:17;2266.67;;;999.90;;
3718;SDS011;1875;52.492;6.860;2022-07-29T02:29:47;2266.67;;;999.90;;
3718;SDS011;1875;52.492;6.860;2022-07-29T02:32:16;2266.67;;;999.90;;
3718;SDS011;1875;52.492;6.860;2022-07-29T02:34:45;2266.67;;;999.90;;
3718;SDS011;1875;52.492;6.860;2022-07-29T02:37:13;2266.67;;;999.90;;
3718;SDS011;1875;52.492;6.860;2022-07-29T02:39:43;2266.67;;;999.90;;
3718;SDS011;1875;52.492;6.860;2022-07-29T02:42:13;2266.67;;;999.90;;
3718;SDS011;1875;52.492;6.860;2022-07-29T02:44:42;2266.67;;;999.90;;
3718;SDS011;1875;52.492;6.860;2022-07-29T02:47:12;2266.67;;;999.90;;
3718;SDS011;1875;52.492;6.860;2022-07-29T02:49:42;2266.67;;;999.90;;
3718;SDS011;1875;52.492;6.860;2022-07-29T02:52:21;2266.67;;;999.90;;
3718;SDS011;1875;52.492;6.860;2022-07-29T02:54:53;2266.67;;;999.90;;
3718;SDS011;1875;52.492;6.860;2022-07-29T02:57:22;2266.67;;;999.90;;
3718;SDS011;1875;52.492;6.860;2022-07-29T02:59:57;1646.23;;;998.93;;
3718;SDS011;1875;52.492;6.860;2022-07-29T03:02:26;2119.57;;;783.37;;
3718;SDS011;1875;52.492;6.860;2022-07-29T03:04:58;2266.67;;;464.47;;
3718;SDS011;1875;52.492;6.860;2022-07-29T03:07:27;2266.67;;;471.40;;
3718;SDS011;1875;52.492;6.860;2022-07-29T03:09:55;2266.67;;;301.80;;
3718;SDS011;1875;52.492;6.860;2022-07-29T03:12:23;2266.67;;;632.33;;
3718;SDS011;1875;52.492;6.860;2022-07-29T03:14:51;2158.03;;;787.57;;
3718;SDS011;1875;52.492;6.860;2022-07-29T03:17:18;2266.67;;;266.33;;
3718;SDS011;1875;52.492;6.860;2022-07-29T03:19:46;2249.43;;;789.63;;
3718;SDS011;1875;52.492;6.860;2022-07-29T03:22:16;2266.67;;;136.07;;
3718;SDS011;1875;52.492;6.860;2022-07-29T03:24:44;2266.67;;;266.63;;
3718;SDS011;1875;52.492;6.860;2022-07-29T03:27:12;2266.67;;;163.47;;
3718;SDS011;1875;52.492;6.860;2022-07-29T03:29:40;2266.67;;;184.50;;
3718;SDS011;1875;52.492;6.860;2022-07-29T03:32:15;2266.67;;;490.17;;
3718;SDS011;1875;52.492;6.860;2022-07-29T03:34:50;2266.67;;;134.97;;
3718;SDS011;1875;52.492;6.860;2022-07-29T03:37:19;2204.03;;;807.50;;
3718;SDS011;1875;52.492;6.860;2022-07-29T03:39:47;2250.17;;;793.93;;
3718;SDS011;1875;52.492;6.860;2022-07-29T03:42:15;2186.80;;;787.83;;
3718;SDS011;1875;52.492;6.860;2022-07-29T03:44:44;1559.80;;;939.67;;
3718;SDS011;1875;52.492;6.860;2022-07-29T03:47:13;2266.67;;;265.17;;
3718;SDS011;1875;52.492;6.860;2022-07-29T03:49:42;2266.67;;;304.93;;
3718;SDS011;1875;52.492;6.860;2022-07-29T03:52:11;1580.57;;;774.20;;
3718;SDS011;1875;52.492;6.860;2022-07-29T03:54:41;1628.60;;;995.87;;
3718;SDS011;1875;52.492;6.860;2022-07-29T03:57:09;1487.67;;;999.90;;
3718;SDS011;1875;52.492;6.860;2022-07-29T03:59:37;1942.03;;;865.60;;
3718;SDS011;1875;52.492;6.860;2022-07-29T04:02:06;2168.97;;;778.70;;
3718;SDS011;1875;52.492;6.860;2022-07-29T04:04:36;1875.53;;;817.37;;
3718;SDS011;1875;52.492;6.860;2022-07-29T04:07:04;2177.63;;;780.73;;
3718;SDS011;1875;52.492;6.860;2022-07-29T04:09:32;2256.60;;;475.90;;
3718;SDS011;1875;52.492;6.860;2022-07-29T04:12:01;1715.70;;;747.73;;
3718;SDS011;1875;52.492;6.860;2022-07-29T04:14:30;2266.67;;;782.97;;
3718;SDS011;1875;52.492;6.860;2022-07-29T04:16:58;2163.53;;;767.40;;
3718;SDS011;1875;52.492;6.860;2022-07-29T04:19:26;2153.77;;;774.87;;
3718;SDS011;1875;52.492;6.860;2022-07-29T04:21:53;2266.67;;;296.50;;
3718;SDS011;1875;52.492;6.860;2022-07-29T04:24:21;2142.73;;;772.77;;
3718;SDS011;1875;52.492;6.860;2022-07-29T04:26:49;2266.67;;;298.83;;
3718;SDS011;1875;52.492;6.860;2022-07-29T04:29:18;2216.97;;;772.93;;
3718;SDS011;1875;52.492;6.860;2022-07-29T04:31:46;2266.67;;;308.93;;
3718;SDS011;1875;52.492;6.860;2022-07-29T04:34:13;1451.90;;;915.07;;
3718;SDS011;1875;52.492;6.860;2022-07-29T04:36:42;2169.90;;;776.20;;
3718;SDS011;1875;52.492;6.860;2022-07-29T04:39:09;2226.70;;;774.57;;
3718;SDS011;1875;52.492;6.860;2022-07-29T04:41:37;2266.67;;;267.10;;
3718;SDS011;1875;52.492;6.860;2022-07-29T04:44:05;2266.67;;;790.70;;
3718;SDS011;1875;52.492;6.860;2022-07-29T04:46:35;2126.40;;;773.03;;
3718;SDS011;1875;52.492;6.860;2022-07-29T04:49:03;2266.67;;;779.93;;
3718;SDS011;1875;52.492;6.860;2022-07-29T04:51:31;2266.67;;;317.67;;
3718;SDS011;1875;52.492;6.860;2022-07-29T04:53:58;2266.67;;;301.63;;
3718;SDS011;1875;52.492;6.860;2022-07-29T04:56:26;1617.43;;;750.60;;
3718;SDS011;1875;52.492;6.860;2022-07-29T04:58:54;2266.67;;;134.67;;
3718;SDS011;1875;52.492;6.860;2022-07-29T05:01:22;2168.43;;;779.07;;
3718;SDS011;1875;52.492;6.860;2022-07-29T05:03:51;2232.37;;;786.77;;
3718;SDS011;1875;52.492;6.860;2022-07-29T05:06:25;2172.03;;;777.97;;
3718;SDS011;1875;52.492;6.860;2022-07-29T05:08:53;2266.67;;;304.87;;
3718;SDS011;1875;52.492;6.860;2022-07-29T05:11:20;2266.67;;;284.43;;
3718;SDS011;1875;52.492;6.860;2022-07-29T05:13:55;2238.20;;;792.23;;
3718;SDS011;1875;52.492;6.860;2022-07-29T05:16:22;2266.67;;;308.43;;
3718;SDS011;1875;52.492;6.860;2022-07-29T05:18:51;2266.67;;;269.03;;
3718;SDS011;1875;52.492;6.860;2022-07-29T05:21:19;2266.67;;;269.73;;
3718;SDS011;1875;52.492;6.860;2022-07-29T05:23:47;2266.67;;;796.17;;
3718;SDS011;1875;52.492;6.860;2022-07-29T05:26:14;2266.67;;;269.23;;
3718;SDS011;1875;52.492;6.860;2022-07-29T05:28:42;2261.40;;;795.97;;
3718;SDS011;1875;52.492;6.860;2022-07-29T05:31:09;2266.67;;;382.90;;
3718;SDS011;1875;52.492;6.860;2022-07-29T05:33:37;2266.67;;;270.93;;
3718;SDS011;1875;52.492;6.860;2022-07-29T05:36:06;1544.83;;;987.37;;
3718;SDS011;1875;52.492;6.860;2022-07-29T05:38:34;2179.93;;;790.97;;
3718;SDS011;1875;52.492;6.860;2022-07-29T05:41:02;2266.67;;;462.13;;
3718;SDS011;1875;52.492;6.860;2022-07-29T05:43:30;864.63;;;353.53;;
3718;SDS011;1875;52.492;6.860;2022-07-29T05:45:58;880.17;;;353.90;;
3718;SDS011;1875;52.492;6.860;2022-07-29T05:48:26;862.60;;;348.80;;
3718;SDS011;1875;52.492;6.860;2022-07-29T05:50:54;849.50;;;348.27;;
3718;SDS011;1875;52.492;6.860;2022-07-29T05:53:23;850.27;;;346.60;;
3718;SDS011;1875;52.492;6.860;2022-07-29T05:55:50;878.17;;;351.57;;
3718;SDS011;1875;52.492;6.860;2022-07-29T05:58:18;864.07;;;348.93;;
3718;SDS011;1875;52.492;6.860;2022-07-29T06:00:46;867.47;;;348.47;;
3718;SDS011;1875;52.492;6.860;2022-07-29T06:03:14;852.83;;;346.50;;
3718;SDS011;1875;52.492;6.860;2022-07-29T06:05:41;856.53;;;348.03;;
3718;SDS011;1875;52.492;6.860;2022-07-29T06:08:09;840.70;;;345.57;;
3718;SDS011;1875;52.492;6.860;2022-07-29T06:10:38;863.87;;;347.93;;
3718;SDS011;1875;52.492;6.860;2022-07-29T06:13:06;870.80;;;348.10;;
3718;SDS011;1875;52.492;6.860;2022-07-29T06:15:33;868.40;;;347.40;;
3718;SDS011;1875;52.492;6.860;2022-07-29T06:18:01;861.20;;;347.43;;
3718;SDS011;1875;52.492;6.860;2022-07-29T06:20:29;185.77;;;20.83;;
3718;SDS011;1875;52.492;6.860;2022-07-29T06:22:58;178.70;;;20.67;;
3718;SDS011;1875;52.492;6.860;2022-07-29T06:25:26;162.00;;;19.70;;
3718;SDS011;1875;52.492;6.860;2022-07-29T06:27:56;177.17;;;21.03;;
3718;SDS011;1875;52.492;6.860;2022-07-29T06:30:24;191.03;;;20.80;;
3718;SDS011;1875;52.492;6.860;2022-07-29T06:32:52;180.07;;;18.23;;
3718;SDS011;1875;52.492;6.860;2022-07-29T06:35:20;187.23;;;20.10;;
3718;SDS011;1875;52.492;6.860;2022-07-29T06:38:07;181.33;;;19.20;;
3718;SDS011;1875;52.492;6.860;2022-07-29T06:40:56;187.10;;;21.57;;
3718;SDS011;1875;52.492;6.860;2022-07-29T06:43:31;186.53;;;20.40;;
3718;SDS011;1875;52.492;6.860;2022-07-29T06:46:16;163.47;;;16.37;;
3718;SDS011;1875;52.492;6.860;2022-07-29T06:48:45;205.80;;;22.97;;
3718;SDS011;1875;52.492;6.860;2022-07-29T06:51:14;202.80;;;22.73;;
3718;SDS011;1875;52.492;6.860;2022-07-29T06:53:48;181.30;;;19.03;;
3718;SDS011;1875;52.492;6.860;2022-07-29T06:56:28;179.30;;;18.77;;
3718;SDS011;1875;52.492;6.860;2022-07-29T06:58:57;189.10;;;22.43;;
3718;SDS011;1875;52.492;6.860;2022-07-29T07:01:26;185.23;;;21.23;;
3718;SDS011;1875;52.492;6.860;2022-07-29T07:03:54;1518.77;;;298.93;;
3718;SDS011;1875;52.492;6.860;2022-07-29T07:06:22;1508.97;;;281.50;;
3718;SDS011;1875;52.492;6.860;2022-07-29T07:08:50;2266.67;;;826.67;;
3718;SDS011;1875;52.492;6.860;2022-07-29T07:11:17;1551.50;;;297.90;;
3718;SDS011;1875;52.492;6.860;2022-07-29T07:13:45;1550.40;;;303.97;;
3718;SDS011;1875;52.492;6.860;2022-07-29T07:16:14;2266.67;;;884.83;;
3718;SDS011;1875;52.492;6.860;2022-07-29T07:18:42;2266.67;;;624.20;;
3718;SDS011;1875;52.492;6.860;2022-07-29T07:21:11;2266.67;;;679.40;;
3718;SDS011;1875;52.492;6.860;2022-07-29T07:23:44;2266.67;;;675.10;;
3718;SDS011;1875;52.492;6.860;2022-07-29T07:26:12;2266.67;;;668.93;;
3718;SDS011;1875;52.492;6.860;2022-07-29T07:28:40;1522.97;;;229.80;;
3718;SDS011;1875;52.492;6.860;2022-07-29T07:31:08;2266.67;;;675.00;;
3718;SDS011;1875;52.492;6.860;2022-07-29T07:33:38;2266.67;;;612.27;;
3718;SDS011;1875;52.492;6.860;2022-07-29T07:36:05;2266.67;;;621.90;;
3718;SDS011;1875;52.492;6.860;2022-07-29T07:38:33;2266.67;;;615.30;;
3718;SDS011;1875;52.492;6.860;2022-07-29T07:41:01;189.80;;;19.60;;
3718;SDS011;1875;52.492;6.860;2022-07-29T07:43:29;191.23;;;20.63;;
3718;SDS011;1875;52.492;6.860;2022-07-29T07:45:56;194.90;;;23.07;;
3718;SDS011;1875;52.492;6.860;2022-07-29T07:48:24;209.17;;;24.23;;
3718;SDS011;1875;52.492;6.860;2022-07-29T07:50:53;205.90;;;23.80;;
3718;SDS011;1875;52.492;6.860;2022-07-29T07:53:21;203.07;;;24.83;;
3718;SDS011;1875;52.492;6.860;2022-07-29T07:55:49;219.77;;;27.53;;
3718;SDS011;1875;52.492;6.860;2022-07-29T07:58:37;177.63;;;21.67;;
3718;SDS011;1875;52.492;6.860;2022-07-29T08:01:04;185.13;;;21.63;;
3718;SDS011;1875;52.492;6.860;2022-07-29T08:03:32;170.70;;;22.03;;
3718;SDS011;1875;52.492;6.860;2022-07-29T08:06:01;187.27;;;19.03;;
3718;SDS011;1875;52.492;6.860;2022-07-29T08:08:29;182.67;;;21.83;;
3718;SDS011;1875;52.492;6.860;2022-07-29T08:10:57;184.77;;;22.40;;
3718;SDS011;1875;52.492;6.860;2022-07-29T08:13:30;157.57;;;18.03;;
3718;SDS011;1875;52.492;6.860;2022-07-29T08:15:58;195.83;;;24.73;;
3718;SDS011;1875;52.492;6.860;2022-07-29T08:18:28;177.47;;;24.33;;
3718;SDS011;1875;52.492;6.860;2022-07-29T08:20:57;166.83;;;20.40;;
3718;SDS011;1875;52.492;6.860;2022-07-29T08:23:26;173.80;;;23.33;;
3718;SDS011;1875;52.492;6.860;2022-07-29T08:26:12;183.23;;;24.97;;
3718;SDS011;1875;52.492;6.860;2022-07-29T08:28:41;179.90;;;24.30;;
3718;SDS011;1875;52.492;6.860;2022-07-29T08:31:11;180.33;;;23.53;;
3718;SDS011;1875;52.492;6.860;2022-07-29T08:33:39;191.73;;;27.00;;
3718;SDS011;1875;52.492;6.860;2022-07-29T08:36:07;181.90;;;25.43;;
3718;SDS011;1875;52.492;6.860;2022-07-29T08:38:36;206.17;;;28.80;;
3718;SDS011;1875;52.492;6.860;2022-07-29T08:41:03;187.67;;;24.83;;
3718;SDS011;1875;52.492;6.860;2022-07-29T08:43:31;184.90;;;24.27;;
3718;SDS011;1875;52.492;6.860;2022-07-29T08:46:01;206.00;;;29.43;;
3718;SDS011;1875;52.492;6.860;2022-07-29T08:48:28;185.87;;;25.03;;
3718;SDS011;1875;52.492;6.860;2022-07-29T08:50:56;180.47;;;24.27;;
3718;SDS011;1875;52.492;6.860;2022-07-29T08:53:25;189.77;;;27.37;;
3718;SDS011;1875;52.492;6.860;2022-07-29T08:55:55;209.30;;;28.60;;
3718;SDS011;1875;52.492;6.860;2022-07-29T08:58:22;1564.60;;;339.57;;
3718;SDS011;1875;52.492;6.860;2022-07-29T09:00:52;2266.67;;;961.80;;
3718;SDS011;1875;52.492;6.860;2022-07-29T09:03:23;2266.67;;;876.37;;
3718;SDS011;1875;52.492;6.860;2022-07-29T09:05:52;1571.40;;;374.63;;
3718;SDS011;1875;52.492;6.860;2022-07-29T09:08:20;2266.67;;;989.47;;
3718;SDS011;1875;52.492;6.860;2022-07-29T09:10:48;2266.67;;;978.93;;
3718;SDS011;1875;52.492;6.860;2022-07-29T09:13:18;2266.67;;;914.47;;
3718;SDS011;1875;52.492;6.860;2022-07-29T09:15:46;2266.67;;;926.90;;
3718;SDS011;1875;52.492;6.860;2022-07-29T09:18:27;1550.80;;;677.30;;
3718;SDS011;1875;52.492;6.860;2022-07-29T09:21:00;1526.33;;;209.77;;
3718;SDS011;1875;52.492;6.860;2022-07-29T09:23:58;2266.67;;;999.90;;
3718;SDS011;1875;52.492;6.860;2022-07-29T09:26:27;1581.10;;;209.13;;
3718;SDS011;1875;52.492;6.860;2022-07-29T09:28:57;2266.67;;;634.00;;
3718;SDS011;1875;52.492;6.860;2022-07-29T09:34:13;1533.57;;;205.73;;
3718;SDS011;1875;52.492;6.860;2022-07-29T09:36:42;2266.67;;;558.60;;
3718;SDS011;1875;52.492;6.860;2022-07-29T09:39:11;2266.67;;;589.27;;
3718;SDS011;1875;52.492;6.860;2022-07-29T09:41:46;2266.67;;;549.30;;
3718;SDS011;1875;52.492;6.860;2022-07-29T09:44:16;2266.67;;;572.00;;
3718;SDS011;1875;52.492;6.860;2022-07-29T09:46:52;2266.67;;;604.87;;
3718;SDS011;1875;52.492;6.860;2022-07-29T09:49:21;2266.67;;;778.87;;
3718;SDS011;1875;52.492;6.860;2022-07-29T09:51:58;1544.33;;;272.57;;
3718;SDS011;1875;52.492;6.860;2022-07-29T09:54:27;1558.00;;;253.80;;
3718;SDS011;1875;52.492;6.860;2022-07-29T09:56:55;2266.67;;;688.27;;
3718;SDS011;1875;52.492;6.860;2022-07-29T09:59:24;2266.67;;;666.73;;
3718;SDS011;1875;52.492;6.860;2022-07-29T10:01:52;2266.67;;;736.83;;
3718;SDS011;1875;52.492;6.860;2022-07-29T10:04:20;2266.67;;;673.73;;
3718;SDS011;1875;52.492;6.860;2022-07-29T10:06:55;2266.67;;;692.23;;
3718;SDS011;1875;52.492;6.860;2022-07-29T10:09:30;2266.67;;;789.27;;
3718;SDS011;1875;52.492;6.860;2022-07-29T10:12:04;2266.67;;;774.43;;
3718;SDS011;1875;52.492;6.860;2022-07-29T10:14:35;2159.43;;;531.67;;
3718;SDS011;1875;52.492;6.860;2022-07-29T10:17:04;2266.67;;;999.90;;
3718;SDS011;1875;52.492;6.860;2022-07-29T10:19:32;1534.30;;;263.50;;
3718;SDS011;1875;52.492;6.860;2022-07-29T10:22:02;2266.67;;;779.13;;
3718;SDS011;1875;52.492;6.860;2022-07-29T10:24:31;2266.67;;;789.07;;
3718;SDS011;1875;52.492;6.860;2022-07-29T10:27:00;1534.20;;;270.60;;
3718;SDS011;1875;52.492;6.860;2022-07-29T10:29:28;2266.67;;;753.03;;
3718;SDS011;1875;52.492;6.860;2022-07-29T10:32:02;1582.60;;;678.87;;
3718;SDS011;1875;52.492;6.860;2022-07-29T10:34:43;1508.90;;;172.17;;
3718;SDS011;1875;52.492;6.860;2022-07-29T10:37:25;2266.67;;;546.30;;
3718;SDS011;1875;52.492;6.860;2022-07-29T10:40:15;2266.67;;;698.37;;
3718;SDS011;1875;52.492;6.860;2022-07-29T10:43:21;299.93;;;30.80;;
3718;SDS011;1875;52.492;6.860;2022-07-29T10:45:54;1545.37;;;249.87;;
3718;SDS011;1875;52.492;6.860;2022-07-29T10:48:25;2266.67;;;752.73;;
3718;SDS011;1875;52.492;6.860;2022-07-29T10:50:53;1483.80;;;246.33;;
3718;SDS011;1875;52.492;6.860;2022-07-29T10:53:22;2266.67;;;765.20;;
3718;SDS011;1875;52.492;6.860;2022-07-29T10:55:52;1543.67;;;264.20;;
3718;SDS011;1875;52.492;6.860;2022-07-29T10:58:20;1447.07;;;145.77;;
3718;SDS011;1875;52.492;6.860;2022-07-29T11:00:51;229.43;;;25.73;;
3718;SDS011;1875;52.492;6.860;2022-07-29T11:06:15;1533.63;;;146.37;;
3718;SDS011;1875;52.492;6.860;2022-07-29T11:12:02;1564.27;;;486.90;;
3718;SDS011;1875;52.492;6.860;2022-07-29T11:17:24;1545.40;;;441.90;;
3718;SDS011;1875;52.492;6.860;2022-07-29T11:23:17;2266.67;;;999.90;;
3718;SDS011;1875;52.492;6.860;2022-07-29T11:25:54;2266.67;;;999.90;;
3718;SDS011;1875;52.492;6.860;2022-07-29T11:28:48;2266.67;;;999.90;;
3718;SDS011;1875;52.492;6.860;2022-07-29T11:31:19;2266.67;;;999.90;;
3718;SDS011;1875;52.492;6.860;2022-07-29T11:42:50;245.00;;;22.33;;
3718;SDS011;1875;52.492;6.860;2022-07-29T11:45:19;1500.03;;;169.57;;
3718;SDS011;1875;52.492;6.860;2022-07-29T11:48:16;2266.67;;;536.03;;
3718;SDS011;1875;52.492;6.860;2022-07-29T11:50:55;2266.67;;;558.80;;
3718;SDS011;1875;52.492;6.860;2022-07-29T11:53:23;247.50;;;23.60;;
3718;SDS011;1875;52.492;6.860;2022-07-29T11:56:13;1482.67;;;175.87;;
3718;SDS011;1875;52.492;6.860;2022-07-29T11:58:42;1497.33;;;182.70;;
3718;SDS011;1875;52.492;6.860;2022-07-29T12:01:12;2266.67;;;541.33;;
3718;SDS011;1875;52.492;6.860;2022-07-29T12:03:40;2266.67;;;999.90;;
3718;SDS011;1875;52.492;6.860;2022-07-29T12:06:13;1514.73;;;186.47;;
3718;SDS011;1875;52.492;6.860;2022-07-29T12:09:06;2266.67;;;530.97;;
3718;SDS011;1875;52.492;6.860;2022-07-29T12:11:41;1493.23;;;197.67;;
3718;SDS011;1875;52.492;6.860;2022-07-29T12:14:24;2266.67;;;667.80;;
3718;SDS011;1875;52.492;6.860;2022-07-29T12:16:52;2266.67;;;670.83;;
3718;SDS011;1875;52.492;6.860;2022-07-29T12:19:20;2266.67;;;737.53;;
3718;SDS011;1875;52.492;6.860;2022-07-29T12:21:51;2266.67;;;731.33;;
3718;SDS011;1875;52.492;6.860;2022-07-29T12:24:26;2266.67;;;660.63;;
3718;SDS011;1875;52.492;6.860;2022-07-29T12:26:55;1478.00;;;220.73;;
3718;SDS011;1875;52.492;6.860;2022-07-29T12:29:24;2266.67;;;708.63;;
3718;SDS011;1875;52.492;6.860;2022-07-29T12:32:00;1476.23;;;230.73;;
3718;SDS011;1875;52.492;6.860;2022-07-29T12:34:28;1454.40;;;209.80;;
3718;SDS011;1875;52.492;6.860;2022-07-29T12:36:56;2266.67;;;621.47;;
3718;SDS011;1875;52.492;6.860;2022-07-29T12:39:24;1450.37;;;210.73;;
3718;SDS011;1875;52.492;6.860;2022-07-29T12:41:55;1472.20;;;226.30;;
3718;SDS011;1875;52.492;6.860;2022-07-29T12:44:42;201.80;;;18.87;;
3718;SDS011;1875;52.492;6.860;2022-07-29T12:47:11;1466.70;;;223.00;;
3718;SDS011;1875;52.492;6.860;2022-07-29T12:49:38;2266.67;;;663.60;;
3718;SDS011;1875;52.492;6.860;2022-07-29T12:54:52;2266.67;;;741.73;;
3718;SDS011;1875;52.492;6.860;2022-07-29T12:57:21;2266.67;;;700.47;;
3718;SDS011;1875;52.492;6.860;2022-07-29T13:00:06;2266.67;;;752.30;;
3718;SDS011;1875;52.492;6.860;2022-07-29T13:02:36;2266.67;;;733.50;;
3718;SDS011;1875;52.492;6.860;2022-07-29T13:05:05;2266.67;;;693.77;;
3718;SDS011;1875;52.492;6.860;2022-07-29T13:07:34;2266.67;;;718.30;;
3718;SDS011;1875;52.492;6.860;2022-07-29T13:10:22;2266.67;;;745.77;;
3718;SDS011;1875;52.492;6.860;2022-07-29T13:13:05;2266.67;;;771.40;;
3718;SDS011;1875;52.492;6.860;2022-07-29T13:15:34;2266.67;;;725.67;;
3718;SDS011;1875;52.492;6.860;2022-07-29T13:18:02;2266.67;;;705.47;;
3718;SDS011;1875;52.492;6.860;2022-07-29T13:20:31;2266.67;;;671.23;;
3718;SDS011;1875;52.492;6.860;2022-07-29T13:22:59;2266.67;;;713.97;;
3718;SDS011;1875;52.492;6.860;2022-07-29T13:25:28;2266.67;;;651.50;;
3718;SDS011;1875;52.492;6.860;2022-07-29T13:27:58;2266.67;;;762.93;;
3718;SDS011;1875;52.492;6.860;2022-07-29T13:30:28;1417.60;;;212.80;;
3718;SDS011;1875;52.492;6.860;2022-07-29T13:32:55;2266.67;;;715.43;;
3718;SDS011;1875;52.492;6.860;2022-07-29T13:35:23;2266.67;;;727.93;;
3718;SDS011;1875;52.492;6.860;2022-07-29T13:37:50;2266.67;;;739.13;;
3718;SDS011;1875;52.492;6.860;2022-07-29T13:40:19;2266.67;;;726.23;;
3718;SDS011;1875;52.492;6.860;2022-07-29T13:42:46;2266.67;;;735.60;;
3718;SDS011;1875;52.492;6.860;2022-07-29T13:45:14;1443.67;;;225.07;;
3718;SDS011;1875;52.492;6.860;2022-07-29T13:47:43;2266.67;;;688.43;;
3718;SDS011;1875;52.492;6.860;2022-07-29T13:50:14;2266.67;;;699.17;;
3718;SDS011;1875;52.492;6.860;2022-07-29T13:52:42;1439.83;;;213.20;;
3718;SDS011;1875;52.492;6.860;2022-07-29T13:55:10;2266.67;;;670.80;;
3718;SDS011;1875;52.492;6.860;2022-07-29T13:57:37;2266.67;;;718.13;;
3718;SDS011;1875;52.492;6.860;2022-07-29T14:00:05;2266.67;;;768.53;;
3718;SDS011;1875;52.492;6.860;2022-07-29T14:02:34;1410.40;;;230.37;;
3718;SDS011;1875;52.492;6.860;2022-07-29T14:05:04;2266.67;;;755.70;;
3718;SDS011;1875;52.492;6.860;2022-07-29T14:07:34;2266.67;;;757.53;;
3718;SDS011;1875;52.492;6.860;2022-07-29T14:10:01;2266.67;;;774.07;;
3718;SDS011;1875;52.492;6.860;2022-07-29T14:12:30;2266.67;;;703.93;;
3718;SDS011;1875;52.492;6.860;2022-07-29T14:14:58;1434.60;;;211.77;;
3718;SDS011;1875;52.492;6.860;2022-07-29T14:17:25;2266.67;;;699.07;;
3718;SDS011;1875;52.492;6.860;2022-07-29T14:19:53;2266.67;;;632.53;;
3718;SDS011;1875;52.492;6.860;2022-07-29T14:22:22;2266.67;;;649.97;;
3718;SDS011;1875;52.492;6.860;2022-07-29T14:24:51;2266.67;;;652.07;;
3718;SDS011;1875;52.492;6.860;2022-07-29T14:27:19;2266.67;;;660.83;;
3718;SDS011;1875;52.492;6.860;2022-07-29T14:30:03;2266.67;;;640.37;;
3718;SDS011;1875;52.492;6.860;2022-07-29T14:32:32;2266.67;;;707.40;;
3718;SDS011;1875;52.492;6.860;2022-07-29T14:34:59;2266.67;;;716.07;;
3718;SDS011;1875;52.492;6.860;2022-07-29T14:37:28;2266.67;;;693.13;;
3718;SDS011;1875;52.492;6.860;2022-07-29T14:40:06;2266.67;;;680.03;;
3718;SDS011;1875;52.492;6.860;2022-07-29T14:42:34;1399.00;;;213.17;;
3718;SDS011;1875;52.492;6.860;2022-07-29T14:45:03;2266.67;;;696.13;;
3718;SDS011;1875;52.492;6.860;2022-07-29T14:47:31;1402.27;;;200.33;;
3718;SDS011;1875;52.492;6.860;2022-07-29T14:49:59;1413.43;;;197.97;;
3718;SDS011;1875;52.492;6.860;2022-07-29T14:52:26;2266.67;;;663.90;;
3718;SDS011;1875;52.492;6.860;2022-07-29T14:54:55;1438.33;;;175.80;;
3718;SDS011;1875;52.492;6.860;2022-07-29T14:57:23;1421.70;;;291.73;;
3718;SDS011;1875;52.492;6.860;2022-07-29T14:59:51;2266.67;;;950.33;;
3718;SDS011;1875;52.492;6.860;2022-07-29T15:02:18;1421.53;;;306.97;;